createdAt,value
2023-04-04T00:01:36.994Z,5.30
2023-04-04T00:04:04.741Z,5.82
2023-04-04T00:06:32.412Z,4.93
2023-04-04T00:09:00.060Z,5.45
2023-04-04T00:11:27.876Z,5.88
2023-04-04T00:13:55.900Z,6.80
2023-04-04T00:16:23.489Z,4.30
2023-04-04T00:18:51.089Z,5.97
2023-04-04T00:21:19.159Z,5.28
2023-04-04T00:23:46.887Z,4.47
2023-04-04T00:26:14.395Z,4.43
2023-04-04T00:28:42.795Z,4.20
2023-04-04T00:31:10.371Z,3.92
2023-04-04T00:33:38.435Z,3.80
2023-04-04T00:36:06.281Z,3.58
2023-04-04T00:38:33.909Z,4.13
2023-04-04T00:41:01.781Z,5.50
2023-04-04T00:43:29.865Z,3.65
2023-04-04T00:45:57.619Z,3.25
2023-04-04T00:48:25.346Z,3.35
2023-04-04T00:50:53.266Z,3.35
2023-04-04T00:53:21.294Z,3.65
2023-04-04T00:55:49.217Z,2.60
2023-04-04T00:58:17.404Z,3.22
2023-04-04T01:00:45.446Z,2.85
2023-04-04T01:03:14.323Z,2.75
2023-04-04T01:05:42.033Z,3.22
2023-04-04T01:08:09.682Z,2.55
2023-04-04T01:10:39.139Z,2.80
2023-04-04T01:13:11.830Z,2.60
2023-04-04T01:15:41.170Z,2.88
2023-04-04T01:18:09.743Z,2.40
2023-04-04T01:20:52.779Z,2.53
2023-04-04T01:23:30.622Z,2.20
2023-04-04T01:26:03.770Z,1.77
2023-04-04T01:28:33.847Z,2.30
2023-04-04T01:31:05.731Z,2.20
2023-04-04T01:33:43.428Z,2.80
2023-04-04T01:36:36.382Z,2.10
2023-04-04T01:39:18.999Z,2.22
2023-04-04T01:41:49.332Z,2.17
2023-04-04T01:44:19.209Z,2.35
2023-04-04T01:46:48.223Z,2.53
2023-04-04T01:49:16.557Z,2.47
2023-04-04T01:51:45.218Z,2.33
2023-04-04T01:54:13.250Z,2.13
2023-04-04T01:56:40.932Z,2.55
2023-04-04T01:59:09.202Z,2.25
2023-04-04T02:01:37.102Z,2.92
2023-04-04T02:04:05.279Z,2.45
2023-04-04T02:06:32.978Z,2.80
2023-04-04T02:09:04.305Z,2.45
2023-04-04T02:11:32.914Z,2.72
2023-04-04T02:14:03.291Z,2.38
2023-04-04T02:16:31.241Z,2.42
2023-04-04T02:18:58.882Z,2.70
2023-04-04T02:21:27.264Z,3.03
2023-04-04T02:23:54.955Z,2.88
2023-04-04T02:26:23.089Z,3.55
2023-04-04T02:28:50.668Z,2.80
2023-04-04T02:31:18.376Z,2.30
2023-04-04T02:33:46.432Z,2.35
2023-04-04T02:36:18.658Z,2.78
2023-04-04T02:38:48.280Z,2.92
2023-04-04T02:41:16.769Z,2.60
2023-04-04T02:43:44.325Z,2.75
2023-04-04T02:46:21.236Z,2.83
2023-04-04T02:48:54.956Z,2.85
2023-04-04T02:51:23.114Z,2.85
2023-04-04T02:53:50.880Z,2.88
2023-04-04T02:56:26.703Z,2.92
2023-04-04T02:58:55.710Z,3.33
2023-04-04T03:01:23.508Z,2.88
2023-04-04T03:03:51.457Z,3.22
2023-04-04T03:06:20.688Z,2.83
2023-04-04T03:08:50.552Z,3.00
2023-04-04T03:11:21.508Z,2.60
2023-04-04T03:13:51.758Z,2.90
2023-04-04T03:16:22.892Z,2.80
2023-04-04T03:18:52.949Z,3.10
2023-04-04T03:21:22.593Z,3.28
2023-04-04T03:23:50.481Z,2.53
2023-04-04T03:26:18.095Z,2.65
2023-04-04T03:28:46.095Z,3.53
2023-04-04T03:31:14.866Z,2.53
2023-04-04T03:33:43.591Z,3.30
2023-04-04T03:36:14.423Z,3.25
2023-04-04T03:38:42.447Z,2.95
2023-04-04T03:41:12.379Z,3.17
2023-04-04T03:43:40.060Z,3.03
2023-04-04T03:46:08.681Z,3.80
2023-04-04T03:48:37.393Z,3.92
2023-04-04T03:51:08.100Z,3.42
2023-04-04T03:53:37.306Z,3.88
2023-04-04T03:56:05.149Z,3.65
2023-04-04T03:58:35.508Z,3.80
2023-04-04T04:01:03.429Z,2.97
2023-04-04T04:03:32.333Z,2.67
2023-04-04T04:06:00.377Z,2.95
2023-04-04T04:08:28.060Z,4.43
2023-04-04T04:10:55.769Z,3.20
2023-04-04T04:13:23.515Z,3.42
2023-04-04T04:15:54.441Z,3.70
2023-04-04T04:18:23.711Z,3.22
2023-04-04T04:23:24.559Z,3.38
2023-04-04T04:25:52.809Z,3.72
2023-04-04T04:28:33.821Z,4.18
2023-04-04T04:31:09.891Z,4.93
2023-04-04T04:33:44.063Z,4.07
2023-04-04T04:36:11.771Z,4.22
2023-04-04T04:38:49.030Z,4.38
2023-04-04T04:41:17.406Z,4.20
2023-04-04T04:43:49.366Z,4.97
2023-04-04T04:46:17.135Z,4.43
2023-04-04T04:48:45.323Z,4.63
2023-04-04T04:51:15.295Z,4.55
2023-04-04T04:53:48.017Z,4.13
2023-04-04T04:56:16.076Z,4.70
2023-04-04T04:58:47.683Z,4.75
2023-04-04T05:01:23.756Z,4.90
2023-04-04T05:03:54.732Z,5.00
2023-04-04T05:06:29.156Z,3.65
2023-04-04T05:08:57.947Z,4.60
2023-04-04T05:11:31.261Z,4.13
2023-04-04T05:14:02.573Z,5.10
2023-04-04T05:16:37.498Z,4.25
2023-04-04T05:19:10.571Z,3.75
2023-04-04T05:21:45.690Z,4.20
2023-04-04T05:24:19.754Z,4.82
2023-04-04T05:26:48.562Z,3.80
2023-04-04T05:29:16.389Z,4.38
2023-04-04T05:31:47.558Z,4.60
2023-04-04T05:34:20.153Z,5.20
2023-04-04T05:36:50.741Z,4.43
2023-04-04T05:39:21.205Z,4.95
2023-04-04T05:42:01.272Z,4.03
2023-04-04T05:44:32.930Z,4.20
2023-04-04T05:47:01.141Z,3.80
2023-04-04T05:49:32.511Z,4.60
2023-04-04T05:52:02.680Z,4.25
2023-04-04T05:54:35.395Z,4.85
2023-04-04T05:57:08.503Z,5.03
2023-04-04T05:59:40.900Z,5.50
2023-04-04T06:02:11.191Z,5.53
2023-04-04T06:04:43.515Z,4.47
2023-04-04T06:07:12.284Z,5.40
2023-04-04T06:09:41.302Z,4.82
2023-04-04T06:12:12.521Z,5.00
2023-04-04T06:14:41.533Z,5.50
2023-04-04T06:19:38.212Z,5.15
2023-04-04T06:22:06.077Z,5.55
2023-04-04T06:24:37.621Z,5.05
2023-04-04T06:27:06.596Z,7.55
2023-04-04T06:29:36.846Z,5.07
2023-04-04T06:32:06.647Z,4.75
2023-04-04T06:34:40.441Z,4.80
2023-04-04T06:37:09.140Z,5.00
2023-04-04T06:39:43.825Z,4.35
2023-04-04T06:42:20.601Z,5.00
2023-04-04T06:44:50.497Z,4.30
2023-04-04T06:47:21.469Z,4.53
2023-04-04T06:49:49.202Z,5.22
2023-04-04T06:52:19.885Z,5.37
2023-04-04T06:54:47.571Z,5.80
2023-04-04T06:57:15.631Z,5.00
2023-04-04T06:59:45.077Z,5.25
2023-04-04T07:07:12.376Z,4.90
2023-04-04T07:09:39.973Z,4.35
2023-04-04T07:12:07.611Z,4.65
2023-04-04T07:14:35.219Z,4.32
2023-04-04T07:17:10.634Z,4.72
2023-04-04T07:19:45.148Z,3.90
2023-04-04T07:22:13.310Z,3.75
2023-04-04T07:24:42.591Z,4.13
2023-04-04T07:27:16.541Z,3.50
2023-04-04T07:29:44.299Z,3.83
2023-04-04T07:32:12.073Z,3.42
2023-04-04T07:34:39.758Z,3.60
2023-04-04T07:37:07.908Z,3.72
2023-04-04T07:39:35.540Z,3.22
2023-04-04T07:42:03.123Z,3.55
2023-04-04T07:44:30.665Z,3.40
2023-04-04T07:47:08.589Z,3.40
2023-04-04T07:49:37.681Z,3.53
2023-04-04T07:52:05.330Z,3.67
2023-04-04T07:54:32.921Z,3.55
2023-04-04T07:57:00.620Z,2.60
2023-04-04T07:59:28.510Z,3.50
2023-04-04T08:01:56.008Z,3.85
2023-04-04T08:04:24.679Z,3.65
2023-04-04T08:06:53.156Z,2.83
2023-04-04T08:09:20.686Z,3.15
2023-04-04T08:11:48.308Z,3.17
2023-04-04T08:14:15.908Z,4.72
2023-04-04T08:16:43.649Z,2.80
2023-04-04T08:19:11.546Z,2.53
2023-04-04T08:21:39.045Z,3.10
2023-04-04T08:24:06.789Z,2.83
2023-04-04T08:26:34.517Z,2.67
2023-04-04T08:29:02.169Z,2.85
2023-04-04T08:31:32.298Z,2.90
2023-04-04T08:34:02.209Z,3.63
2023-04-04T08:36:30.732Z,3.05
2023-04-04T08:38:58.347Z,3.95
2023-04-04T08:41:27.172Z,3.47
2023-04-04T08:43:57.648Z,2.47
2023-04-04T08:46:26.043Z,3.00
2023-04-04T08:48:57.062Z,3.17
2023-04-04T08:51:26.257Z,3.10
2023-04-04T08:53:56.015Z,3.47
2023-04-04T08:56:24.158Z,2.72
2023-04-04T08:58:51.773Z,2.95
2023-04-04T09:01:19.819Z,2.78
2023-04-04T09:03:48.281Z,2.70
2023-04-04T09:06:16.873Z,3.05
2023-04-04T09:08:46.031Z,3.40
2023-04-04T09:11:14.747Z,3.05
2023-04-04T09:13:44.807Z,2.85
2023-04-04T09:16:13.634Z,3.72
2023-04-04T09:18:41.213Z,3.60
2023-04-04T09:21:12.909Z,3.78
2023-04-04T09:23:40.593Z,3.50
2023-04-04T09:26:08.184Z,3.65
2023-04-04T09:28:36.048Z,4.45
2023-04-04T09:31:06.980Z,4.05
2023-04-04T09:33:34.972Z,4.40
2023-04-04T09:36:10.310Z,4.63
2023-04-04T09:38:41.137Z,4.22
2023-04-04T09:41:12.208Z,4.25
2023-04-04T09:43:40.162Z,4.03
2023-04-04T09:46:10.469Z,5.65
2023-04-04T09:48:38.178Z,5.07
2023-04-04T09:51:12.700Z,5.03
2023-04-04T09:53:42.241Z,5.25
2023-04-04T09:56:11.306Z,4.60
2023-04-04T09:58:44.224Z,5.40
2023-04-04T10:01:20.213Z,4.50
2023-04-04T10:03:54.796Z,4.97
2023-04-04T10:06:23.532Z,4.60
2023-04-04T10:08:53.141Z,4.70
2023-04-04T10:11:35.378Z,4.68
2023-04-04T10:14:06.833Z,4.93
2023-04-04T10:16:38.575Z,4.22
2023-04-04T10:19:07.909Z,4.35
2023-04-04T10:21:36.065Z,5.38
2023-04-04T10:24:09.375Z,4.85
2023-04-04T10:26:37.815Z,5.20
2023-04-04T10:29:08.296Z,4.45
2023-04-04T10:31:41.475Z,4.93
2023-04-04T10:34:28.649Z,4.90
2023-04-04T10:37:12.313Z,4.60
2023-04-04T10:39:49.438Z,5.03
2023-04-04T10:42:19.036Z,4.28
2023-04-04T10:44:47.643Z,5.20
2023-04-04T10:47:22.090Z,4.88
2023-04-04T10:49:51.570Z,4.38
2023-04-04T10:52:20.958Z,5.65
2023-04-04T10:54:52.904Z,4.93
2023-04-04T10:57:21.440Z,5.18
2023-04-04T11:00:10.339Z,4.90
2023-04-04T11:02:51.374Z,4.68
2023-04-04T11:05:37.386Z,4.75
2023-04-04T11:08:10.653Z,5.07
2023-04-04T11:10:39.295Z,6.47
2023-04-04T11:13:26.246Z,5.05
2023-04-04T11:16:03.960Z,5.53
2023-04-04T11:18:41.680Z,5.93
2023-04-04T11:21:13.873Z,5.93
2023-04-04T11:23:59.873Z,5.72
2023-04-04T11:26:30.699Z,5.00
2023-04-04T11:28:59.868Z,5.15
2023-04-04T11:31:34.802Z,5.07
2023-04-04T11:34:09.135Z,4.88
2023-04-04T11:36:40.261Z,4.72
2023-04-04T11:39:17.496Z,5.13
2023-04-04T11:41:50.188Z,5.95
2023-04-04T11:44:18.246Z,5.07
2023-04-04T11:46:48.539Z,5.30
2023-04-04T11:49:18.701Z,4.60
2023-04-04T11:51:46.798Z,5.45
2023-04-04T11:54:16.187Z,5.13
2023-04-04T11:56:44.934Z,4.65
2023-04-04T11:59:14.115Z,4.88
2023-04-04T12:01:41.818Z,4.97
2023-04-04T12:04:10.399Z,5.40
2023-04-04T12:06:39.482Z,4.90
2023-04-04T12:09:07.331Z,5.03
2023-04-04T12:11:36.463Z,4.57
2023-04-04T12:14:04.063Z,4.87
2023-04-04T12:16:31.971Z,5.25
2023-04-04T12:19:02.253Z,5.32
2023-04-04T12:24:01.090Z,5.22
2023-04-04T12:26:30.802Z,5.72
2023-04-04T12:29:01.540Z,5.15
2023-04-04T12:31:30.921Z,4.88
2023-04-04T12:33:59.805Z,5.35
2023-04-04T12:36:29.891Z,5.93
2023-04-04T12:41:26.840Z,5.38
2023-04-04T12:44:05.587Z,5.53
2023-04-04T12:46:40.724Z,5.45
2023-04-04T12:49:11.211Z,5.18
2023-04-04T12:51:38.994Z,5.63
2023-04-04T12:54:07.389Z,5.80
2023-04-04T12:56:37.164Z,6.25
2023-04-04T12:59:08.305Z,6.22
2023-04-04T13:01:37.903Z,6.10
2023-04-04T13:04:08.772Z,7.10
2023-04-04T13:06:37.544Z,6.10
2023-04-04T13:09:08.033Z,5.88
2023-04-04T13:11:59.107Z,5.72
2023-04-04T13:14:46.181Z,6.30
2023-04-04T13:17:14.446Z,5.43
2023-04-04T13:19:43.909Z,6.47
2023-04-04T13:22:11.503Z,5.53
2023-04-04T13:24:39.946Z,5.63
2023-04-04T13:27:08.514Z,6.47
2023-04-04T13:29:36.076Z,6.47
2023-04-04T13:32:04.944Z,6.75
2023-04-04T13:34:32.829Z,5.75
2023-04-04T13:37:00.708Z,5.63
2023-04-04T13:39:29.094Z,5.32
2023-04-04T13:41:57.403Z,6.40
2023-04-04T13:44:26.807Z,6.82
2023-04-04T13:46:54.996Z,6.57
2023-04-04T13:49:22.497Z,5.78
2023-04-04T13:51:50.286Z,5.80
2023-04-04T13:54:18.355Z,6.82
2023-04-04T13:56:47.371Z,6.68
2023-04-04T13:59:15.643Z,7.75
2023-04-04T14:01:43.636Z,7.35
2023-04-04T14:04:22.657Z,6.18
2023-04-04T14:06:51.309Z,6.97
2023-04-04T14:09:19.357Z,6.65
2023-04-04T14:11:47.446Z,7.18
2023-04-04T14:14:14.994Z,6.57
2023-04-04T14:16:42.669Z,6.22
2023-04-04T14:19:10.690Z,4.82
2023-04-04T14:21:38.248Z,6.10
2023-04-04T14:24:06.025Z,6.65
2023-04-04T14:26:34.198Z,6.50
2023-04-04T14:29:02.732Z,6.20
2023-04-04T14:31:32.549Z,6.35
2023-04-04T14:34:04.098Z,5.90
2023-04-04T14:36:31.870Z,5.60
2023-04-04T14:39:03.021Z,5.88
2023-04-04T14:41:30.862Z,5.53
2023-04-04T14:43:58.360Z,5.65
2023-04-04T14:46:27.154Z,4.63
2023-04-04T14:48:54.772Z,5.32
2023-04-04T14:51:22.431Z,4.55
2023-04-04T14:53:52.424Z,4.93
2023-04-04T14:58:51.396Z,4.97
2023-04-04T15:01:21.470Z,4.75
2023-04-04T15:06:16.953Z,5.05
2023-04-04T15:08:44.570Z,5.05
2023-04-04T15:11:13.219Z,5.78
2023-04-04T15:13:41.060Z,7.43
2023-04-04T15:16:08.653Z,5.68
2023-04-04T15:18:38.097Z,5.43
2023-04-04T15:21:05.835Z,6.13
2023-04-04T15:23:33.519Z,6.30
2023-04-04T15:26:01.239Z,5.82
2023-04-04T15:28:34.432Z,6.10
2023-04-04T15:31:05.097Z,6.75
2023-04-04T15:33:32.871Z,5.55
2023-04-04T15:36:01.112Z,6.20
2023-04-04T15:38:28.939Z,6.65
2023-04-04T15:40:57.944Z,5.60
2023-04-04T15:43:26.365Z,6.13
2023-04-04T15:45:53.991Z,6.18
2023-04-04T15:48:21.603Z,6.68
2023-04-04T15:50:49.092Z,6.32
2023-04-04T15:53:17.839Z,6.72
2023-04-04T15:55:45.667Z,6.75
2023-04-04T15:58:13.271Z,6.18
2023-04-04T16:00:44.006Z,6.80
2023-04-04T16:03:13.129Z,6.35
2023-04-04T16:05:41.463Z,6.53
2023-04-04T16:08:09.152Z,5.85
2023-04-04T16:10:37.026Z,5.97
2023-04-04T16:13:04.617Z,6.20
2023-04-04T16:15:32.698Z,6.13
2023-04-04T16:18:01.086Z,6.43
2023-04-04T16:20:31.290Z,6.00
2023-04-04T16:22:58.941Z,6.10
2023-04-04T16:25:27.429Z,6.60
2023-04-04T16:27:55.557Z,6.75
2023-04-04T16:30:23.357Z,6.47
2023-04-04T16:32:51.409Z,6.82
2023-04-04T16:35:19.075Z,6.35
2023-04-04T16:37:47.499Z,6.38
2023-04-04T16:40:15.537Z,6.05
2023-04-04T16:42:45.939Z,5.63
2023-04-04T16:45:13.629Z,6.38
2023-04-04T16:47:41.398Z,5.97
2023-04-04T16:50:09.540Z,6.13
2023-04-04T16:52:37.043Z,6.22
2023-04-04T16:55:05.426Z,5.55
2023-04-04T16:57:32.929Z,5.97
2023-04-04T17:00:00.700Z,6.53
2023-04-04T17:02:28.304Z,6.38
2023-04-04T17:04:56.462Z,5.97
2023-04-04T17:07:24.227Z,6.28
2023-04-04T17:09:54.230Z,6.55
2023-04-04T17:14:49.139Z,5.47
2023-04-04T17:17:17.449Z,5.78
2023-04-04T17:19:45.589Z,6.32
2023-04-04T17:22:13.373Z,6.22
2023-04-04T17:24:40.885Z,6.63
2023-04-04T17:27:08.720Z,6.82
2023-04-04T17:29:36.674Z,6.45
2023-04-04T17:32:04.475Z,6.40
2023-04-04T17:34:33.089Z,5.78
2023-04-04T17:37:01.119Z,6.35
2023-04-04T17:39:29.631Z,6.70
2023-04-04T17:41:57.680Z,6.50
2023-04-04T17:44:25.203Z,6.63
2023-04-04T17:46:53.569Z,6.68
2023-04-04T17:49:21.670Z,6.20
2023-04-04T17:51:49.720Z,6.63
2023-04-04T17:54:18.013Z,6.57
2023-04-04T17:56:47.383Z,5.93
2023-04-04T17:59:15.919Z,6.40
2023-04-04T18:01:47.321Z,6.60
2023-04-04T18:04:15.176Z,6.50
2023-04-04T18:06:42.870Z,6.00
2023-04-04T18:09:10.868Z,6.47
2023-04-04T18:11:39.148Z,6.10
2023-04-04T18:14:06.818Z,6.35
2023-04-04T18:16:39.768Z,6.30
2023-04-04T18:19:09.755Z,6.18
2023-04-04T18:21:38.370Z,7.07
2023-04-04T18:24:11.803Z,6.80
2023-04-04T18:26:40.532Z,6.57
2023-04-04T18:29:08.417Z,7.10
2023-04-04T18:31:36.663Z,6.43
2023-04-04T18:34:05.554Z,7.20
2023-04-04T18:36:33.451Z,7.60
2023-04-04T18:39:02.037Z,6.03
2023-04-04T18:41:31.935Z,6.35
2023-04-04T18:43:59.505Z,6.25
2023-04-04T18:46:27.200Z,6.22
2023-04-04T18:48:55.566Z,9.45
2023-04-04T18:51:24.006Z,11.63
2023-04-04T18:53:52.031Z,8.10
2023-04-04T18:56:21.724Z,6.30
2023-04-04T18:58:49.607Z,7.15
2023-04-04T19:01:17.506Z,8.48
2023-04-04T19:03:48.532Z,6.97
2023-04-04T19:06:16.414Z,7.32
2023-04-04T19:08:44.601Z,7.05
2023-04-04T19:11:14.864Z,6.60
2023-04-04T19:16:09.798Z,6.32
2023-04-04T19:18:37.750Z,7.50
2023-04-04T19:21:07.950Z,7.25
2023-04-04T19:23:37.253Z,7.07
2023-04-04T19:26:07.221Z,7.32
2023-04-04T19:28:37.362Z,7.50
2023-04-04T19:31:08.931Z,8.38
2023-04-04T19:33:37.166Z,7.32
2023-04-04T19:36:11.893Z,7.45
2023-04-04T19:38:42.622Z,6.88
2023-04-04T19:41:16.710Z,6.78
2023-04-04T19:43:45.898Z,7.45
2023-04-04T19:46:15.999Z,7.43
2023-04-04T19:49:10.901Z,7.47
2023-04-04T19:51:58.742Z,7.82
2023-04-04T19:54:36.867Z,6.50
2023-04-04T19:57:13.513Z,7.63
2023-04-04T19:59:57.349Z,7.43
2023-04-04T20:02:31.140Z,8.23
2023-04-04T20:04:59.813Z,9.27
2023-04-04T20:07:28.693Z,8.97
2023-04-04T20:09:56.314Z,9.13
2023-04-04T20:12:24.290Z,9.05
2023-04-04T20:14:55.469Z,8.48
2023-04-04T20:17:23.076Z,7.60
2023-04-04T20:19:50.735Z,7.93
2023-04-04T20:22:18.898Z,7.55
2023-04-04T20:24:47.178Z,8.88
2023-04-04T20:27:34.058Z,7.40
2023-04-04T20:30:05.660Z,8.00
2023-04-04T20:32:35.908Z,8.25
2023-04-04T20:35:09.843Z,8.13
2023-04-04T20:37:37.745Z,8.27
2023-04-04T20:40:13.292Z,8.13
2023-04-04T20:42:41.931Z,8.07
2023-04-04T20:45:10.052Z,9.32
2023-04-04T20:47:44.842Z,9.30
2023-04-04T20:50:21.496Z,7.72
2023-04-04T20:53:03.021Z,9.27
2023-04-04T20:55:32.276Z,8.18
2023-04-04T20:58:25.635Z,8.82
2023-04-04T21:00:53.517Z,7.63
2023-04-04T21:03:28.498Z,7.22
2023-04-04T21:06:27.210Z,9.00
2023-04-04T21:08:55.465Z,6.88
2023-04-04T21:11:32.473Z,7.50
2023-04-04T21:14:00.308Z,7.30
2023-04-04T21:16:29.462Z,8.05
2023-04-04T21:18:59.544Z,7.23
2023-04-04T21:24:02.221Z,6.90
2023-04-04T21:26:34.382Z,6.28
2023-04-04T21:29:07.355Z,6.18
2023-04-04T21:31:40.562Z,6.22
2023-04-04T21:34:09.796Z,6.80
2023-04-04T21:36:37.818Z,6.70
2023-04-04T21:39:15.621Z,6.22
2023-04-04T21:41:46.959Z,8.13
2023-04-04T21:44:15.034Z,7.28
2023-04-04T21:46:43.343Z,6.57
2023-04-04T21:49:10.975Z,8.20
2023-04-04T21:51:38.672Z,6.57
2023-04-04T21:54:07.414Z,6.90
2023-04-04T21:56:35.127Z,7.40
2023-04-04T21:59:05.558Z,7.32
2023-04-04T22:01:34.642Z,7.40
2023-04-04T22:04:02.728Z,7.15
2023-04-04T22:06:31.106Z,6.40
2023-04-04T22:09:01.821Z,7.32
2023-04-04T22:11:29.921Z,7.15
2023-04-04T22:14:04.326Z,6.65
2023-04-04T22:16:32.727Z,7.40
2023-04-04T22:19:01.513Z,6.07
2023-04-04T22:21:29.286Z,6.47
2023-04-04T22:24:00.952Z,7.05
2023-04-04T22:26:32.358Z,7.50
2023-04-04T22:29:05.306Z,7.22
2023-04-04T22:31:37.638Z,7.53
2023-04-04T22:34:06.400Z,8.82
2023-04-04T22:36:34.528Z,7.72
2023-04-04T22:39:02.926Z,7.43
2023-04-04T22:41:30.603Z,7.72
2023-04-04T22:43:58.378Z,7.05
2023-04-04T22:46:29.368Z,7.95
2023-04-04T22:49:05.350Z,7.28
2023-04-04T22:51:44.089Z,7.38
2023-04-04T22:54:16.088Z,7.60
2023-04-04T22:56:44.273Z,7.68
2023-04-04T22:59:12.340Z,7.10
2023-04-04T23:01:40.532Z,6.57
2023-04-04T23:04:08.524Z,7.38
2023-04-04T23:06:36.358Z,7.38
2023-04-04T23:09:04.233Z,6.80
2023-04-04T23:11:35.470Z,7.30
2023-04-04T23:14:10.808Z,9.52
2023-04-04T23:16:38.444Z,7.15
2023-04-04T23:19:06.224Z,7.05
2023-04-04T23:21:34.325Z,6.93
2023-04-04T23:24:03.301Z,7.05
2023-04-04T23:26:33.599Z,6.97
2023-04-04T23:29:02.200Z,7.30
2023-04-04T23:31:32.329Z,6.80
2023-04-04T23:34:02.525Z,6.55
2023-04-04T23:36:31.347Z,6.25
2023-04-04T23:38:58.904Z,6.75
2023-04-04T23:41:26.767Z,6.68
2023-04-04T23:43:54.388Z,7.50
2023-04-04T23:46:22.441Z,7.60
2023-04-04T23:48:50.330Z,7.03
2023-04-04T23:51:18.059Z,7.32
2023-04-04T23:53:45.747Z,7.68
2023-04-04T23:56:13.271Z,6.63
2023-04-04T23:58:40.785Z,9.18
